Time;durP1;ratioP1;P1;durP2;ratioP2;P2;SDS_P1;SDS_P2;PMS_P1;PMS_P2;Temp;Humidity;BMP_temperature;BMP_pressure;BME280_temperature;BME280_humidity;BME280_pressure;Samples;Min_cycle;Max_cycle;Signal;HPM_P1;HPM_P2
2022/04/12 00:01:35;;;;;;;22.80;10.65;;;9.70;62.70;;;;;;4929829;29;20066;-72
2022/04/12 00:04:04;;;;;;;16.30;9.63;;;9.80;62.60;;;;;;4954143;29;20047;-72
2022/04/12 00:06:32;;;;;;;14.23;9.57;;;9.80;62.60;;;;;;4933108;28;20058;-73
2022/04/12 00:09:00;;;;;;;17.48;9.90;;;9.80;62.60;;;;;;4936953;29;20397;-72
2022/04/12 00:11:27;;;;;;;21.38;10.57;;;9.80;62.60;;;;;;4943808;29;20055;-72
2022/04/12 00:13:55;;;;;;;21.10;10.73;;;9.70;62.60;;;;;;4950448;29;20055;-72
2022/04/12 00:16:22;;;;;;;20.70;10.25;;;9.70;62.60;;;;;;4927175;29;20060;-72
2022/04/12 00:19:02;;;;;;;19.10;10.65;;;9.70;62.80;;;;;;4935717;29;20048;-73
2022/04/12 00:21:34;;;;;;;19.25;10.02;;;9.70;62.90;;;;;;4946755;29;20048;-73
2022/04/12 00:24:06;;;;;;;21.35;10.32;;;9.60;63.00;;;;;;4937751;29;20047;-72
2022/04/12 00:26:34;;;;;;;22.52;10.63;;;9.70;63.00;;;;;;4918523;29;20047;-73
2022/04/12 00:29:03;;;;;;;21.15;10.55;;;9.60;63.10;;;;;;4909118;29;20062;-72
2022/04/12 00:31:31;;;;;;;17.52;10.95;;;9.70;63.00;;;;;;4918435;29;20062;-72
2022/04/12 00:33:59;;;;;;;20.60;11.05;;;9.70;63.10;;;;;;4946280;29;20063;-73
2022/04/12 00:36:28;;;;;;;18.73;10.32;;;9.70;63.10;;;;;;4934875;29;20051;-73
2022/04/12 00:38:55;;;;;;;20.35;10.88;;;9.70;63.20;;;;;;4952967;28;20058;-72
2022/04/12 00:41:23;;;;;;;17.52;9.95;;;9.80;63.10;;;;;;4954784;28;20054;-72
2022/04/12 00:43:51;;;;;;;18.27;10.45;;;9.80;63.00;;;;;;4943658;29;20058;-72
2022/04/12 00:46:18;;;;;;;20.33;11.13;;;9.80;62.90;;;;;;4928920;29;20520;-72
2022/04/12 00:48:46;;;;;;;19.17;10.73;;;9.80;63.00;;;;;;4944301;29;20114;-72
2022/04/12 00:51:14;;;;;;;19.48;10.90;;;9.80;63.10;;;;;;4921514;29;20055;-72
2022/04/12 00:53:42;;;;;;;19.10;11.20;;;9.80;63.10;;;;;;4918843;29;20410;-73
2022/04/12 00:56:10;;;;;;;28.73;12.18;;;9.80;63.10;;;;;;4941662;29;20044;-72
2022/04/12 00:58:38;;;;;;;18.13;11.13;;;9.80;63.20;;;;;;4940706;29;20050;-71
2022/04/12 01:01:05;;;;;;;21.58;12.20;;;9.80;63.30;;;;;;4954291;28;20051;-72
2022/04/12 01:03:34;;;;;;;21.45;12.50;;;9.80;63.30;;;;;;4921009;29;20051;-71
2022/04/12 01:06:02;;;;;;;22.40;12.18;;;9.80;63.40;;;;;;4954656;29;20416;-71
2022/04/12 01:08:29;;;;;;;22.13;13.18;;;9.80;63.50;;;;;;4945634;29;20062;-71
2022/04/12 01:11:04;;;;;;;19.65;12.18;;;9.70;63.80;;;;;;4926708;29;20048;-72
2022/04/12 01:13:36;;;;;;;19.98;13.07;;;9.70;63.90;;;;;;4936704;29;20056;-73
2022/04/12 01:16:09;;;;;;;27.45;13.55;;;9.70;64.10;;;;;;4944318;29;20059;-72
2022/04/12 01:18:38;;;;;;;20.67;12.20;;;9.70;64.20;;;;;;4940278;29;20569;-72
2022/04/12 01:21:05;;;;;;;18.17;12.70;;;9.60;64.20;;;;;;4928052;29;20070;-72
2022/04/12 01:24:03;;;;;;;20.90;13.68;;;9.60;64.30;;;;;;4938762;29;20043;-72
2022/04/12 01:26:32;;;;;;;26.48;14.30;;;9.60;64.70;;;;;;4922918;29;20067;-72
2022/04/12 01:29:00;;;;;;;23.25;13.27;;;9.50;64.70;;;;;;4946378;29;20051;-72
2022/04/12 01:31:27;;;;;;;25.05;14.15;;;9.50;64.80;;;;;;4924025;29;20051;-72
2022/04/12 01:33:55;;;;;;;21.75;13.73;;;9.40;65.00;;;;;;4902172;29;20517;-71
2022/04/12 01:36:23;;;;;;;21.77;13.93;;;9.40;65.20;;;;;;4902735;29;20522;-71
2022/04/12 01:38:50;;;;;;;22.00;14.13;;;9.40;65.40;;;;;;4919284;29;20055;-71
2022/04/12 01:41:18;;;;;;;20.98;13.73;;;9.30;65.50;;;;;;4923950;29;20059;-71
2022/04/12 01:43:45;;;;;;;25.88;14.95;;;9.30;65.70;;;;;;4945427;29;20040;-71
2022/04/12 01:46:13;;;;;;;23.73;14.82;;;9.30;65.90;;;;;;4919787;29;20043;-72
2022/04/12 01:48:41;;;;;;;21.77;14.88;;;9.30;66.00;;;;;;4929015;29;20059;-72
2022/04/12 01:51:09;;;;;;;27.02;16.02;;;9.30;66.10;;;;;;4949284;29;20044;-72
2022/04/12 01:53:37;;;;;;;23.83;15.48;;;9.30;66.20;;;;;;4919057;29;20437;-72
2022/04/12 01:56:05;;;;;;;27.75;16.02;;;9.30;66.30;;;;;;4922262;29;20394;-72
2022/04/12 01:58:33;;;;;;;29.67;16.15;;;9.30;66.50;;;;;;4924989;29;20043;-71
2022/04/12 02:01:01;;;;;;;23.38;14.80;;;9.30;66.60;;;;;;4927817;29;20059;-72
2022/04/12 02:03:29;;;;;;;30.42;16.35;;;9.20;66.80;;;;;;4924957;29;20056;-72
2022/04/12 02:05:57;;;;;;;25.40;16.45;;;9.20;67.10;;;;;;4948811;28;20397;-72
2022/04/12 02:08:24;;;;;;;26.17;15.70;;;9.20;67.20;;;;;;4949199;29;20058;-72
2022/04/12 02:10:52;;;;;;;26.30;16.55;;;9.20;67.30;;;;;;4950602;29;20054;-72
2022/04/12 02:13:19;;;;;;;26.13;16.45;;;9.10;67.40;;;;;;4936229;29;20066;-72
2022/04/12 02:15:47;;;;;;;27.58;17.38;;;9.10;67.60;;;;;;4934149;28;20513;-72
2022/04/12 02:18:15;;;;;;;33.90;17.23;;;9.10;67.70;;;;;;4931370;29;20047;-72
2022/04/12 02:20:42;;;;;;;32.10;17.58;;;9.10;67.90;;;;;;4951581;28;20056;-72
2022/04/12 02:23:10;;;;;;;30.33;17.77;;;9.10;68.20;;;;;;4948991;29;20066;-73
2022/04/12 02:25:37;;;;;;;30.20;17.70;;;9.10;68.20;;;;;;4950048;28;20421;-72
2022/04/12 02:28:05;;;;;;;37.40;18.00;;;9.20;68.40;;;;;;4935001;29;20058;-72
2022/04/12 02:30:33;;;;;;;30.90;18.38;;;9.20;68.70;;;;;;4940457;29;20043;-73
2022/04/12 02:33:01;;;;;;;29.15;17.77;;;9.20;69.00;;;;;;4921462;29;20043;-72
2022/04/12 02:35:28;;;;;;;26.65;18.45;;;9.30;69.10;;;;;;4913771;29;20044;-72
2022/04/12 02:37:56;;;;;;;31.65;18.67;;;9.30;69.10;;;;;;4904754;29;20070;-72
2022/04/12 02:40:23;;;;;;;30.83;18.27;;;9.30;69.10;;;;;;4934715;29;20382;-72
2022/04/12 02:42:51;;;;;;;33.00;18.95;;;9.30;69.20;;;;;;4936634;28;20048;-73
2022/04/12 02:45:19;;;;;;;31.10;18.25;;;9.30;69.20;;;;;;4927046;28;20048;-72
2022/04/12 02:47:46;;;;;;;36.55;18.85;;;9.30;69.20;;;;;;4945934;29;20051;-72
2022/04/12 02:50:14;;;;;;;29.88;18.45;;;9.30;69.40;;;;;;4928272;29;20047;-72
2022/04/12 02:52:41;;;;;;;31.35;19.15;;;9.30;69.40;;;;;;4929837;29;20040;-73
2022/04/12 02:55:09;;;;;;;30.13;18.95;;;9.30;69.40;;;;;;4950223;29;20047;-72
2022/04/12 02:57:37;;;;;;;30.23;19.23;;;9.30;69.40;;;;;;4921741;29;20063;-72
2022/04/12 03:00:05;;;;;;;34.05;19.20;;;9.30;69.40;;;;;;4943489;29;20066;-72
2022/04/12 03:02:33;;;;;;;35.30;19.35;;;9.30;69.40;;;;;;4907179;29;20059;-72
2022/04/12 03:05:01;;;;;;;30.88;18.80;;;9.30;69.40;;;;;;4929854;29;20055;-72
2022/04/12 03:07:28;;;;;;;38.78;19.38;;;9.40;69.40;;;;;;4954726;28;20559;-71
2022/04/12 03:09:56;;;;;;;31.10;19.20;;;9.40;69.30;;;;;;4954979;28;20043;-72
2022/04/12 03:12:23;;;;;;;30.48;18.13;;;9.40;69.30;;;;;;4941504;29;20043;-72
2022/04/12 03:14:51;;;;;;;33.92;19.17;;;9.40;69.40;;;;;;4934682;29;20055;-72
2022/04/12 03:17:20;;;;;;;30.98;18.77;;;9.40;69.40;;;;;;4938913;29;20504;-72
2022/04/12 03:19:48;;;;;;;31.70;18.85;;;9.50;69.40;;;;;;4943699;29;20485;-72
2022/04/12 03:22:15;;;;;;;32.92;19.42;;;9.50;69.40;;;;;;4936779;29;20066;-72
2022/04/12 03:24:45;;;;;;;33.20;19.58;;;9.50;69.50;;;;;;4920953;29;20063;-72
2022/04/12 03:27:12;;;;;;;32.85;19.60;;;9.40;69.50;;;;;;4937886;29;20055;-72
2022/04/12 03:29:40;;;;;;;35.30;19.38;;;9.40;69.50;;;;;;4937076;29;20059;-72
2022/04/12 03:32:08;;;;;;;33.15;19.65;;;9.50;69.50;;;;;;4937003;29;20051;-72
2022/04/12 03:34:38;;;;;;;32.47;18.83;;;9.40;69.50;;;;;;4910802;29;20056;-72
2022/04/12 03:37:06;;;;;;;30.98;18.98;;;9.40;69.60;;;;;;4949804;28;20076;-72
2022/04/12 03:39:33;;;;;;;31.85;19.77;;;9.40;69.60;;;;;;4925253;29;20070;-72
2022/04/12 03:42:01;;;;;;;29.80;18.67;;;9.40;69.70;;;;;;4935622;29;20051;-73
2022/04/12 03:44:29;;;;;;;34.30;19.05;;;9.30;69.80;;;;;;4943413;28;20112;-72
2022/04/12 03:46:56;;;;;;;34.05;18.30;;;9.40;69.80;;;;;;4939484;29;20058;-72
2022/04/12 03:49:24;;;;;;;30.63;18.13;;;9.40;69.80;;;;;;4940475;28;20052;-71
2022/04/12 03:51:51;;;;;;;35.90;17.98;;;9.40;69.70;;;;;;4935005;29;20489;-71
2022/04/12 03:54:24;;;;;;;29.63;18.10;;;9.50;69.70;;;;;;4929220;29;20058;-71
2022/04/12 03:56:51;;;;;;;27.30;18.02;;;9.50;69.70;;;;;;4931130;28;20051;-72
2022/04/12 03:59:19;;;;;;;28.65;18.35;;;9.50;69.70;;;;;;4925891;29;20047;-71
2022/04/12 04:01:46;;;;;;;34.35;18.63;;;9.50;69.60;;;;;;4939450;29;20047;-72
2022/04/12 04:04:14;;;;;;;32.63;18.85;;;9.50;69.70;;;;;;4947132;29;20040;-73
2022/04/12 04:06:42;;;;;;;34.42;19.00;;;9.50;69.70;;;;;;4939969;29;20047;-71
2022/04/12 04:09:09;;;;;;;33.53;19.25;;;9.50;69.70;;;;;;4947051;28;20056;-71
2022/04/12 04:11:43;;;;;;;31.00;20.10;;;9.50;69.70;;;;;;4917316;29;20062;-73
2022/04/12 04:14:12;;;;;;;35.08;19.58;;;9.40;69.80;;;;;;4921353;29;20068;-73
2022/04/12 04:16:40;;;;;;;35.65;20.52;;;9.40;69.90;;;;;;4936320;29;20367;-72
2022/04/12 04:19:11;;;;;;;35.50;19.60;;;9.30;70.00;;;;;;4921687;29;20060;-71
2022/04/12 04:21:39;;;;;;;31.52;19.13;;;9.30;70.30;;;;;;4929743;29;20413;-71
2022/04/12 04:24:06;;;;;;;33.70;19.98;;;9.20;70.40;;;;;;4926449;29;20044;-71
2022/04/12 04:26:34;;;;;;;33.60;19.85;;;9.20;70.60;;;;;;4924187;29;20047;-71
2022/04/12 04:29:01;;;;;;;33.92;19.98;;;9.10;70.80;;;;;;4949416;28;20047;-71
2022/04/12 04:31:29;;;;;;;34.47;20.85;;;9.00;70.90;;;;;;4920117;29;20066;-71
2022/04/12 04:33:57;;;;;;;34.80;20.58;;;9.00;71.10;;;;;;4945017;29;20058;-71
2022/04/12 04:36:25;;;;;;;36.92;21.38;;;9.00;71.30;;;;;;4940405;29;20062;-71
2022/04/12 04:38:52;;;;;;;31.67;20.05;;;8.90;71.40;;;;;;4947035;29;20420;-72
2022/04/12 04:41:20;;;;;;;35.88;20.52;;;8.80;71.60;;;;;;4949523;29;20070;-71
2022/04/12 04:43:48;;;;;;;35.75;21.65;;;8.80;71.80;;;;;;4933978;29;20039;-72
2022/04/12 04:46:16;;;;;;;37.90;21.80;;;8.80;71.90;;;;;;4939039;29;20066;-72
2022/04/12 04:48:44;;;;;;;35.72;20.85;;;8.80;72.00;;;;;;4921331;29;20047;-74
2022/04/12 04:51:11;;;;;;;38.85;22.05;;;8.80;72.10;;;;;;4943457;29;20047;-72
2022/04/12 04:53:40;;;;;;;38.67;21.30;;;8.80;72.30;;;;;;4905446;29;20055;-72
2022/04/12 04:56:07;;;;;;;37.13;21.98;;;8.80;72.50;;;;;;4930325;28;20421;-72
2022/04/12 04:58:35;;;;;;;41.17;23.20;;;8.80;72.70;;;;;;4939219;28;20050;-71
2022/04/12 05:01:03;;;;;;;41.25;22.77;;;8.80;72.70;;;;;;4950913;29;20050;-72
2022/04/12 05:03:31;;;;;;;40.58;22.10;;;8.80;72.80;;;;;;4951053;29;20048;-71
2022/04/12 05:05:59;;;;;;;35.13;21.48;;;8.80;72.90;;;;;;4917902;29;20046;-72
2022/04/12 05:08:26;;;;;;;40.45;23.23;;;8.70;73.00;;;;;;4934654;28;20047;-71
2022/04/12 05:10:54;;;;;;;41.47;23.52;;;8.70;73.10;;;;;;4933146;29;20066;-71
2022/04/12 05:13:22;;;;;;;40.55;23.45;;;8.70;73.20;;;;;;4918190;29;20070;-71
2022/04/12 05:15:49;;;;;;;43.33;24.33;;;8.60;73.30;;;;;;4926385;29;20062;-71
2022/04/12 05:18:17;;;;;;;35.22;22.52;;;8.60;73.40;;;;;;4928929;29;20043;-72
2022/04/12 05:20:44;;;;;;;40.97;23.83;;;8.50;73.60;;;;;;4936853;29;20044;-72
2022/04/12 05:23:12;;;;;;;46.33;25.40;;;8.40;73.70;;;;;;4903451;29;20436;-71
2022/04/12 05:25:39;;;;;;;41.67;24.30;;;8.30;73.90;;;;;;4927455;29;20074;-71
2022/04/12 05:28:07;;;;;;;46.85;28.10;;;8.30;74.10;;;;;;4941115;29;20052;-71
2022/04/12 05:30:35;;;;;;;47.92;29.50;;;8.30;74.30;;;;;;4917689;29;20770;-72
2022/04/12 05:33:02;;;;;;;59.72;30.80;;;8.30;74.40;;;;;;4926408;29;20040;-71
2022/04/12 05:35:30;;;;;;;53.67;30.60;;;8.20;74.60;;;;;;4931481;29;20055;-71
2022/04/12 05:37:58;;;;;;;53.75;30.55;;;8.20;74.70;;;;;;4918981;29;20043;-71
2022/04/12 05:40:26;;;;;;;56.03;30.73;;;8.30;74.70;;;;;;4917822;29;20052;-71
2022/04/12 05:42:54;;;;;;;48.20;30.23;;;8.30;74.70;;;;;;4926501;29;20043;-72
2022/04/12 05:45:21;;;;;;;50.65;29.80;;;8.20;74.80;;;;;;4933156;29;20505;-72
2022/04/12 05:47:51;;;;;;;66.32;32.22;;;8.20;75.00;;;;;;4951592;28;20059;-72
2022/04/12 05:50:23;;;;;;;51.38;30.58;;;8.20;75.20;;;;;;4946349;29;20465;-72
2022/04/12 05:52:51;;;;;;;52.38;31.23;;;8.20;75.30;;;;;;4905070;29;20055;-72
2022/04/12 05:55:21;;;;;;;47.15;30.00;;;8.20;75.30;;;;;;4939501;29;20051;-72
2022/04/12 05:57:50;;;;;;;54.90;30.02;;;8.20;75.40;;;;;;4939826;29;20054;-72
2022/04/12 06:00:18;;;;;;;57.53;29.92;;;8.20;75.40;;;;;;4919565;29;20058;-72
2022/04/12 06:02:48;;;;;;;50.80;29.05;;;8.30;75.50;;;;;;4937297;28;20048;-72
2022/04/12 06:05:16;;;;;;;48.72;28.08;;;8.30;75.50;;;;;;4940829;29;20047;-72
2022/04/12 06:07:44;;;;;;;48.40;27.05;;;8.40;75.50;;;;;;4894021;29;20055;-72
2022/04/12 06:10:14;;;;;;;46.08;27.08;;;8.50;75.50;;;;;;4938176;29;20095;-71
2022/04/12 06:12:42;;;;;;;51.50;27.77;;;8.60;75.50;;;;;;4930310;29;20044;-72
2022/04/12 06:15:10;;;;;;;49.17;28.48;;;8.70;75.50;;;;;;4900242;29;20059;-72
2022/04/12 06:17:38;;;;;;;49.42;27.65;;;8.80;75.40;;;;;;4929731;29;20051;-73
2022/04/12 06:20:10;;;;;;;46.88;27.05;;;8.90;75.30;;;;;;4909099;29;20387;-73
2022/04/12 06:22:39;;;;;;;51.83;27.85;;;9.00;75.10;;;;;;4929862;29;20051;-73
2022/04/12 06:25:08;;;;;;;47.53;27.48;;;9.00;75.00;;;;;;4938189;29;20051;-72
2022/04/12 06:27:41;;;;;;;51.78;27.63;;;9.10;74.90;;;;;;4908474;29;20043;-72
2022/04/12 06:30:11;;;;;;;46.28;27.23;;;9.20;74.80;;;;;;4915278;29;20051;-72
2022/04/12 06:32:39;;;;;;;52.67;27.77;;;9.30;74.70;;;;;;4924380;29;20043;-72
2022/04/12 06:35:11;;;;;;;45.55;27.20;;;9.30;74.60;;;;;;4926133;29;20498;-72
2022/04/12 06:37:41;;;;;;;46.45;27.10;;;9.30;74.50;;;;;;4913876;29;20087;-72
2022/04/12 06:40:10;;;;;;;48.03;28.17;;;9.40;74.40;;;;;;4953001;29;20070;-72
2022/04/12 06:42:38;;;;;;;46.95;29.17;;;9.50;74.30;;;;;;4938340;29;20066;-72
2022/04/12 06:45:16;;;;;;;51.60;28.92;;;9.50;74.20;;;;;;4947670;29;20051;-72
2022/04/12 06:47:44;;;;;;;50.22;28.10;;;9.60;74.10;;;;;;4952814;28;20507;-72
2022/04/12 06:50:12;;;;;;;53.20;29.08;;;9.60;74.00;;;;;;4938282;29;20633;-72
2022/04/12 06:52:40;;;;;;;46.63;28.23;;;9.70;73.90;;;;;;4954842;29;20062;-72
2022/04/12 06:55:08;;;;;;;51.63;27.88;;;9.70;73.80;;;;;;4925098;29;20062;-72
2022/04/12 06:57:36;;;;;;;50.75;27.48;;;9.70;73.80;;;;;;4914745;29;20043;-72
2022/04/12 07:00:07;;;;;;;48.45;26.58;;;9.80;73.70;;;;;;4937942;29;20055;-72
2022/04/12 07:02:36;;;;;;;49.90;26.08;;;9.80;73.60;;;;;;4926914;29;20406;-72
2022/04/12 07:05:05;;;;;;;45.08;25.63;;;9.80;73.50;;;;;;4948903;29;20043;-72
2022/04/12 07:07:36;;;;;;;44.13;24.92;;;9.80;73.50;;;;;;4951406;29;20040;-72
2022/04/12 07:10:10;;;;;;;41.20;23.00;;;9.80;73.50;;;;;;4945248;28;20047;-72
2022/04/12 07:12:38;;;;;;;37.95;23.23;;;9.80;73.50;;;;;;4949183;29;20052;-72
2022/04/12 07:15:07;;;;;;;44.05;22.50;;;9.80;73.40;;;;;;4947006;29;20043;-72
2022/04/12 07:17:35;;;;;;;42.67;23.17;;;9.90;73.50;;;;;;4954766;28;20059;-72
2022/04/12 07:20:03;;;;;;;42.55;23.17;;;9.90;73.50;;;;;;4935605;29;20063;-72
2022/04/12 07:22:31;;;;;;;40.70;22.75;;;9.90;73.60;;;;;;4948070;29;20039;-71
2022/04/12 07:24:59;;;;;;;41.85;23.23;;;9.90;73.80;;;;;;4929774;29;20052;-73
2022/04/12 07:27:26;;;;;;;48.65;23.25;;;9.90;74.20;;;;;;4936764;29;20050;-72
2022/04/12 07:29:56;;;;;;;49.30;24.15;;;9.90;74.50;;;;;;4941067;29;20055;-72
2022/04/12 07:32:23;;;;;;;48.92;23.90;;;9.80;74.90;;;;;;4929114;29;20051;-72
2022/04/12 07:34:51;;;;;;;45.20;22.80;;;9.80;75.20;;;;;;4926966;29;20505;-72
2022/04/12 07:37:19;;;;;;;45.65;24.00;;;9.80;75.60;;;;;;4943582;29;20043;-71
2022/04/12 07:39:46;;;;;;;43.40;24.20;;;9.80;76.10;;;;;;4937289;29;20054;-72
2022/04/12 07:42:15;;;;;;;47.60;25.63;;;9.70;76.60;;;;;;4946271;29;20043;-71
2022/04/12 07:44:43;;;;;;;49.63;25.42;;;9.70;76.80;;;;;;4923969;29;20048;-72
2022/04/12 07:47:10;;;;;;;46.50;25.02;;;9.70;77.20;;;;;;4923404;28;20054;-72
2022/04/12 07:49:38;;;;;;;50.75;25.35;;;9.70;77.50;;;;;;4925626;29;20051;-72
2022/04/12 07:52:06;;;;;;;51.95;26.67;;;9.70;77.90;;;;;;4951336;28;20070;-71
2022/04/12 07:54:34;;;;;;;62.05;27.92;;;9.70;78.00;;;;;;4944857;29;20050;-72
2022/04/12 07:57:01;;;;;;;49.80;28.33;;;9.70;78.10;;;;;;4927282;29;20043;-72
2022/04/12 07:59:29;;;;;;;48.83;27.25;;;9.70;78.40;;;;;;4920514;29;20046;-72
2022/04/12 08:01:57;;;;;;;50.63;27.13;;;9.70;78.50;;;;;;4941707;29;20046;-72
2022/04/12 08:04:24;;;;;;;60.08;29.33;;;9.70;78.60;;;;;;4923738;29;20052;-71
2022/04/12 08:06:52;;;;;;;52.45;29.60;;;9.70;78.90;;;;;;4931354;29;20462;-72
2022/04/12 08:09:20;;;;;;;58.85;28.90;;;9.80;79.10;;;;;;4906340;29;20066;-71
2022/04/12 08:11:47;;;;;;;54.72;29.35;;;9.70;79.20;;;;;;4940338;29;20473;-72
2022/04/12 08:14:15;;;;;;;58.03;30.85;;;9.80;79.70;;;;;;4951935;29;20062;-71
2022/04/12 08:16:43;;;;;;;68.70;34.15;;;9.80;79.70;;;;;;4948958;29;20401;-72
2022/04/12 08:19:11;;;;;;;71.65;33.88;;;9.80;79.80;;;;;;4926746;29;20047;-71
2022/04/12 08:21:39;;;;;;;68.05;35.05;;;9.80;79.90;;;;;;4920780;29;20051;-71
2022/04/12 08:24:08;;;;;;;66.55;35.13;;;9.80;80.00;;;;;;4921014;29;20051;-72
2022/04/12 08:26:36;;;;;;;62.65;35.75;;;9.90;80.10;;;;;;4951817;29;20043;-72
2022/04/12 08:29:04;;;;;;;69.68;34.75;;;9.90;80.10;;;;;;4945944;28;20516;-72
2022/04/12 08:31:32;;;;;;;69.95;35.28;;;9.90;80.10;;;;;;4928296;29;20056;-72
2022/04/12 08:34:00;;;;;;;68.32;34.22;;;10.00;80.10;;;;;;4948331;29;20043;-72
2022/04/12 08:36:27;;;;;;;72.35;35.58;;;10.00;80.00;;;;;;4960700;28;20059;-71
2022/04/12 08:38:55;;;;;;;70.07;34.92;;;10.00;80.00;;;;;;4937427;29;20062;-71
2022/04/12 08:41:26;;;;;;;72.05;36.40;;;10.00;80.10;;;;;;4936131;29;20481;-72
2022/04/12 08:43:57;;;;;;;63.40;30.23;;;10.00;80.30;;;;;;4944034;28;20063;-72
2022/04/12 08:46:27;;;;;;;53.80;27.63;;;10.00;80.60;;;;;;4907316;29;20046;-72
2022/04/12 08:48:57;;;;;;;53.13;27.15;;;10.10;80.70;;;;;;4947686;29;20070;-72
2022/04/12 08:51:28;;;;;;;51.47;26.55;;;10.10;80.90;;;;;;4935499;29;20051;-70
2022/04/12 08:53:58;;;;;;;55.35;26.73;;;10.20;80.90;;;;;;4924490;29;20106;-72
2022/04/12 08:56:27;;;;;;;48.72;25.42;;;10.20;80.90;;;;;;4932988;29;20521;-70
2022/04/12 08:58:56;;;;;;;54.88;28.40;;;10.20;80.90;;;;;;4948931;29;20035;-70
2022/04/12 09:01:38;;;;;;;50.00;26.55;;;10.20;80.90;;;;;;4933705;29;20532;-70
2022/04/12 09:04:08;;;;;;;57.88;28.23;;;10.10;81.00;;;;;;4934691;28;20044;-70
2022/04/12 09:06:50;;;;;;;56.85;29.13;;;10.10;81.00;;;;;;4952013;29;20117;-70
2022/04/12 09:09:24;;;;;;;54.17;27.25;;;10.00;81.20;;;;;;4953355;29;20050;-70
2022/04/12 09:12:02;;;;;;;57.00;28.20;;;10.00;81.40;;;;;;4933123;29;21359;-69
2022/04/12 09:14:37;;;;;;;53.75;28.65;;;10.00;81.60;;;;;;4947518;28;20062;-70
2022/04/12 09:17:08;;;;;;;51.85;27.77;;;10.10;81.60;;;;;;4948625;29;20051;-70
2022/04/12 09:19:44;;;;;;;57.45;27.80;;;10.20;81.70;;;;;;4923606;29;20425;-70
2022/04/12 09:22:13;;;;;;;52.50;28.15;;;10.20;81.70;;;;;;4952815;29;20039;-70
2022/04/12 09:24:49;;;;;;;56.58;28.05;;;10.30;81.60;;;;;;4945816;29;20051;-71
2022/04/12 09:27:19;;;;;;;56.33;27.48;;;10.20;81.60;;;;;;4917285;29;20054;-70
2022/04/12 09:29:51;;;;;;;50.28;26.83;;;10.30;81.70;;;;;;4947542;29;20058;-70
2022/04/12 09:32:21;;;;;;;61.15;28.35;;;10.20;81.90;;;;;;4943956;29;20052;-70
2022/04/12 09:34:49;;;;;;;57.45;27.55;;;10.20;82.00;;;;;;4934493;29;20044;-70
2022/04/12 09:37:21;;;;;;;52.72;26.38;;;10.20;82.20;;;;;;4945617;29;20054;-71
2022/04/12 09:40:00;;;;;;;55.00;28.30;;;10.20;82.50;;;;;;4938755;29;20047;-72
2022/04/12 09:42:50;;;;;;;52.92;26.85;;;10.10;82.60;;;;;;4938649;29;20039;-69
2022/04/12 09:45:24;;;;;;;51.50;26.70;;;10.20;82.70;;;;;;4941551;29;20641;-69
2022/04/12 09:48:05;;;;;;;48.63;25.90;;;10.20;82.70;;;;;;4941465;29;20039;-69
2022/04/12 09:51:01;;;;;;;58.45;29.63;;;10.20;82.90;;;;;;4934763;29;20046;-69
2022/04/12 09:53:38;;;;;;;60.30;30.73;;;10.20;83.10;;;;;;4935286;29;20055;-69
2022/04/12 09:56:18;;;;;;;52.05;27.73;;;10.30;83.10;;;;;;4945068;28;20520;-69
2022/04/12 09:58:48;;;;;;;51.15;28.77;;;10.40;83.00;;;;;;4942493;29;20039;-69
2022/04/12 10:01:17;;;;;;;54.67;28.98;;;10.40;82.90;;;;;;4931597;29;20062;-69
2022/04/12 10:03:54;;;;;;;48.92;28.30;;;10.40;82.90;;;;;;4938078;29;20406;-69
2022/04/12 10:06:26;;;;;;;48.65;26.85;;;10.50;82.90;;;;;;4941027;29;20055;-69
2022/04/12 10:08:56;;;;;;;58.88;29.63;;;10.50;83.00;;;;;;4927197;29;20408;-69
2022/04/12 10:11:24;;;;;;;49.78;27.40;;;10.60;83.10;;;;;;4944050;29;20512;-69
2022/04/12 10:13:56;;;;;;;49.95;26.83;;;10.70;83.20;;;;;;4947812;28;20039;-71
2022/04/12 10:16:24;;;;;;;52.03;28.23;;;10.80;83.00;;;;;;4937496;29;20059;-68
2022/04/12 10:18:54;;;;;;;53.25;27.80;;;10.90;83.00;;;;;;4934291;28;20059;-68
2022/04/12 10:21:26;;;;;;;53.28;27.45;;;11.00;82.90;;;;;;4951842;28;20381;-68
2022/04/12 10:23:58;;;;;;;47.00;26.95;;;11.10;82.90;;;;;;4943902;29;20102;-69
2022/04/12 10:26:27;;;;;;;49.08;26.30;;;11.20;82.70;;;;;;4923448;29;20050;-68
2022/04/12 10:29:05;;;;;;;53.17;27.33;;;11.20;82.40;;;;;;4938916;29;20497;-68
2022/04/12 10:31:33;;;;;;;52.17;27.30;;;11.30;82.40;;;;;;4931375;28;20055;-69
2022/04/12 10:34:11;;;;;;;50.33;27.25;;;11.30;82.40;;;;;;4949334;29;20493;-68
2022/04/12 10:37:00;;;;;;;48.95;26.30;;;11.30;82.40;;;;;;4931287;29;20047;-69
2022/04/12 10:39:54;;;;;;;50.75;27.05;;;11.20;82.40;;;;;;4938331;29;20055;-69
2022/04/12 10:42:28;;;;;;;52.97;28.10;;;11.10;82.40;;;;;;4950516;28;20051;-69
2022/04/12 10:44:56;;;;;;;53.03;28.02;;;11.00;82.50;;;;;;4948841;29;20054;-69
2022/04/12 10:47:35;;;;;;;51.50;28.02;;;10.90;82.60;;;;;;4934978;29;20062;-69
2022/04/12 10:50:07;;;;;;;48.03;26.83;;;10.80;82.80;;;;;;4931746;28;20048;-69
2022/04/12 10:52:42;;;;;;;56.63;28.33;;;10.80;82.90;;;;;;4952456;28;20051;-70
2022/04/12 10:55:27;;;;;;;52.25;27.48;;;10.70;83.10;;;;;;4935136;29;20043;-69
2022/04/12 10:58:28;;;;;;;49.80;27.48;;;10.80;83.30;;;;;;4940594;29;20489;-69
2022/04/12 11:00:55;;;;;;;46.85;26.52;;;10.80;83.40;;;;;;4943557;29;20400;-69
2022/04/12 11:03:52;;;;;;;47.05;26.60;;;10.90;83.30;;;;;;4942169;29;20493;-70
2022/04/12 11:06:33;;;;;;;46.55;26.10;;;11.00;83.40;;;;;;4926444;28;20051;-70
2022/04/12 11:09:15;;;;;;;49.60;26.00;;;11.10;83.40;;;;;;4946580;28;20058;-71
2022/04/12 11:11:47;;;;;;;46.58;26.88;;;11.10;83.30;;;;;;4952256;28;20493;-71
2022/04/12 11:14:24;;;;;;;43.55;26.38;;;11.20;83.40;;;;;;4926357;29;20066;-68
2022/04/12 11:17:01;;;;;;;44.78;24.88;;;11.30;83.30;;;;;;4930449;29;20406;-68
2022/04/12 11:19:40;;;;;;;47.17;25.85;;;11.30;83.10;;;;;;4921941;29;20067;-69
2022/04/12 11:22:11;;;;;;;42.70;25.35;;;11.30;83.00;;;;;;4907425;29;20060;-68
2022/04/12 11:24:39;;;;;;;50.45;27.98;;;11.30;82.90;;;;;;4927360;29;20117;-68
2022/04/12 11:27:12;;;;;;;45.00;26.27;;;11.30;82.80;;;;;;4923236;29;20056;-70
2022/04/12 11:29:42;;;;;;;45.55;27.45;;;11.30;83.00;;;;;;4899474;29;20043;-70
2022/04/12 11:32:11;;;;;;;50.88;26.65;;;11.30;83.10;;;;;;4921845;29;20077;-69
2022/04/12 11:34:39;;;;;;;50.45;26.55;;;11.30;83.20;;;;;;4925425;29;20056;-69
2022/04/12 11:37:09;;;;;;;47.17;27.42;;;11.20;83.20;;;;;;4910407;29;20383;-69
2022/04/12 11:39:43;;;;;;;40.38;25.95;;;11.20;83.30;;;;;;4926962;29;20055;-69
2022/04/12 11:42:12;;;;;;;;;;;11.20;83.30;;;;;;4915249;29;20059;-69
2022/04/12 11:44:40;;;;;;;50.55;27.52;;;11.20;83.40;;;;;;4943195;29;19922;-68
2022/04/12 11:47:09;;;;;;;49.33;25.92;;;11.30;83.50;;;;;;4927569;29;20502;-68
2022/04/12 11:49:40;;;;;;;42.95;25.75;;;11.30;83.50;;;;;;4926735;29;20795;-69
2022/04/12 11:52:12;;;;;;;50.47;25.55;;;11.50;83.40;;;;;;4929491;29;20043;-68
2022/04/12 11:54:42;;;;;;;46.00;25.70;;;11.60;83.30;;;;;;4934210;29;20047;-68
2022/04/12 11:57:14;;;;;;;47.42;25.05;;;11.60;83.20;;;;;;4934850;29;20055;-68
2022/04/12 11:59:49;;;;;;;43.78;24.17;;;11.70;83.00;;;;;;4936735;29;20047;-68
2022/04/12 12:02:21;;;;;;;50.42;25.80;;;11.70;82.70;;;;;;4932934;29;20056;-68
2022/04/12 12:05:10;;;;;;;50.50;26.98;;;11.60;82.50;;;;;;4933412;29;20055;-68
2022/04/12 12:07:39;;;;;;;46.85;26.27;;;11.60;82.60;;;;;;4906129;29;20052;-68
2022/04/12 12:10:15;;;;;;;44.33;26.05;;;11.50;82.70;;;;;;4926810;29;20051;-68
2022/04/12 12:12:47;;;;;;;42.38;25.27;;;11.40;82.70;;;;;;4931252;29;20047;-69
2022/04/12 12:15:19;;;;;;;50.22;27.10;;;11.40;82.90;;;;;;4914699;29;20180;-68
2022/04/12 12:17:49;;;;;;;43.88;25.48;;;11.40;83.20;;;;;;4930324;29;20048;-68
2022/04/12 12:20:18;;;;;;;42.15;26.40;;;11.60;83.20;;;;;;4895382;29;20074;-67
2022/04/12 12:22:49;;;;;;;45.28;25.90;;;11.90;83.30;;;;;;4915689;29;20051;-68
2022/04/12 12:25:21;;;;;;;39.08;22.73;;;12.40;83.10;;;;;;4925508;29;20409;-68
2022/04/12 12:27:51;;;;;;;38.55;22.55;;;12.80;82.40;;;;;;4916058;29;20059;-68
2022/04/12 12:30:24;;;;;;;38.33;22.77;;;13.30;81.40;;;;;;4932398;29;20056;-69
2022/04/12 12:32:54;;;;;;;39.67;22.42;;;13.60;80.40;;;;;;4922829;29;20052;-69
2022/04/12 12:35:29;;;;;;;39.65;22.30;;;13.80;79.30;;;;;;4901659;29;20449;-68
2022/04/12 12:38:11;;;;;;;37.42;20.88;;;14.00;78.90;;;;;;4932079;29;20051;-71
2022/04/12 12:40:40;;;;;;;34.28;20.05;;;14.20;78.40;;;;;;4910991;29;20383;-68
2022/04/12 12:43:11;;;;;;;35.30;20.20;;;14.20;77.50;;;;;;4916545;29;20054;-80
2022/04/12 12:45:45;;;;;;;29.45;19.70;;;14.20;76.70;;;;;;4933052;29;20048;-74
2022/04/12 12:48:15;;;;;;;34.97;19.77;;;14.10;76.60;;;;;;4918498;29;20039;-73